Azalea Park, Florida
Current Conditions -  °F | °C
As of 3:53 PM on Tuesday 21 Oct 2014 (Local Time) from KORL Reporting Station
Clear Clear  
Wind Chill: 29°   Ceiling: Unl
Heat Index: 30°   Visibility: 10mi
Dew Point: 18°   Wind: 6mph
Humidity: 53%   Direction: 320°NW
Pressure: 29.91"   Gusts: NA
Location:  28.5525°N, 81.3003°W
Report Text: KORL 211953Z 32005KT 10SM CLR 29/18 A2991 RMK AO2 SLP129 T02890183
Loading
Personal Weather Stations






























Interactive Weather Map
Tropical Storm Tracking
New forecast layout! Learn more

10-Day Weather Forecast

Advertisements
Track Severe Weather on mobile